createdAt,value
2022-10-29T00:01:08.318Z,83.60
2022-10-29T00:03:36.095Z,83.70
2022-10-29T00:06:07.077Z,83.60
2022-10-29T00:08:35.447Z,83.50
2022-10-29T00:11:21.042Z,83.50
2022-10-29T00:13:48.679Z,83.30
2022-10-29T00:16:17.210Z,83.30
2022-10-29T00:18:44.306Z,83.30
2022-10-29T00:21:13.535Z,83.40
2022-10-29T00:23:40.341Z,83.30
2022-10-29T00:26:07.132Z,83.20
2022-10-29T00:28:34.133Z,83.20
2022-10-29T00:31:08.019Z,83.40
2022-10-29T00:33:34.784Z,83.30
2022-10-29T00:36:02.951Z,83.50
2022-10-29T00:38:30.881Z,83.90
2022-10-29T00:40:57.797Z,84.30
2022-10-29T00:43:25.356Z,84.40
2022-10-29T00:45:58.515Z,84.30
2022-10-29T00:48:27.415Z,84.30
2022-10-29T00:50:55.121Z,83.80
2022-10-29T00:53:24.398Z,83.70
2022-10-29T00:55:51.262Z,83.60
2022-10-29T00:58:18.683Z,83.60
2022-10-29T01:00:45.984Z,83.50
2022-10-29T01:03:12.799Z,83.30
2022-10-29T01:05:40.037Z,83.50
2022-10-29T01:08:06.850Z,83.40
2022-10-29T01:10:56.898Z,83.70
2022-10-29T01:13:27.015Z,84.00
2022-10-29T01:15:53.875Z,84.30
2022-10-29T01:18:35.245Z,84.50
2022-10-29T01:21:17.165Z,84.70
2022-10-29T01:24:02.963Z,84.70
2022-10-29T01:26:32.720Z,84.90
2022-10-29T01:29:22.899Z,85.20
2022-10-29T01:31:52.743Z,85.40
2022-10-29T01:34:25.221Z,85.60
2022-10-29T01:37:18.310Z,85.80
2022-10-29T01:39:51.673Z,86.00
2022-10-29T01:42:29.810Z,86.40
2022-10-29T01:45:00.863Z,86.80
2022-10-29T01:47:30.830Z,87.40
2022-10-29T01:50:00.147Z,87.90
2022-10-29T01:52:29.075Z,88.40
2022-10-29T01:54:55.804Z,88.70
2022-10-29T01:57:27.573Z,89.00
2022-10-29T01:59:56.400Z,88.80
2022-10-29T02:02:32.203Z,88.80
2022-10-29T02:05:08.510Z,88.20
2022-10-29T02:07:40.322Z,88.20
2022-10-29T02:10:13.200Z,88.50
2022-10-29T02:12:47.612Z,88.90
2022-10-29T02:18:07.806Z,89.50
2022-10-29T02:20:35.330Z,89.60
2022-10-29T02:23:02.146Z,89.90
2022-10-29T02:25:29.343Z,89.40
2022-10-29T02:27:59.160Z,89.80
2022-10-29T02:30:26.099Z,89.60
2022-10-29T02:32:53.081Z,89.90
2022-10-29T02:35:20.100Z,89.60
2022-10-29T02:37:47.102Z,89.50
2022-10-29T02:40:13.872Z,89.50
2022-10-29T02:42:40.643Z,89.80
2022-10-29T02:45:07.486Z,90.00
2022-10-29T02:47:34.323Z,89.70
2022-10-29T02:50:01.055Z,89.50
2022-10-29T02:52:27.914Z,89.80
2022-10-29T02:54:54.699Z,90.10
2022-10-29T02:57:21.434Z,90.10
2022-10-29T02:59:48.210Z,90.30
2022-10-29T03:02:15.057Z,90.30
2022-10-29T03:04:44.154Z,90.40
2022-10-29T03:07:10.873Z,90.50
2022-10-29T03:09:37.750Z,90.50
2022-10-29T03:12:04.583Z,90.60
2022-10-29T03:14:31.429Z,90.60
2022-10-29T03:16:58.200Z,90.60
2022-10-29T03:19:24.975Z,90.70
2022-10-29T03:21:51.734Z,90.80
2022-10-29T03:24:18.487Z,90.80
2022-10-29T03:26:45.179Z,90.60
2022-10-29T03:29:11.941Z,90.60
2022-10-29T03:31:38.777Z,90.80
2022-10-29T03:34:05.574Z,90.80
2022-10-29T03:36:32.362Z,90.80
2022-10-29T03:38:59.092Z,91.00
2022-10-29T03:41:25.772Z,91.00
2022-10-29T03:43:52.610Z,91.00
2022-10-29T03:46:19.578Z,91.00
2022-10-29T03:48:48.851Z,91.10
2022-10-29T03:51:15.575Z,91.10
2022-10-29T03:53:42.336Z,91.10
2022-10-29T03:56:09.374Z,91.10
2022-10-29T03:58:36.075Z,91.00
2022-10-29T04:01:04.708Z,91.10
2022-10-29T04:03:32.469Z,91.00
2022-10-29T04:06:00.055Z,91.10
2022-10-29T04:08:26.882Z,91.20
2022-10-29T04:10:53.713Z,91.10
2022-10-29T04:13:20.497Z,90.90
2022-10-29T04:15:47.454Z,90.90
2022-10-29T04:18:14.273Z,91.30
2022-10-29T04:21:18.631Z,91.00
2022-10-29T04:29:02.338Z,90.70
2022-10-29T04:31:29.109Z,90.80
2022-10-29T04:33:55.804Z,90.90
2022-10-29T04:36:22.570Z,91.10
2022-10-29T04:38:50.043Z,91.10
2022-10-29T04:41:16.789Z,91.20
2022-10-29T04:43:43.565Z,91.30
2022-10-29T04:46:10.755Z,91.20
2022-10-29T04:48:37.709Z,91.40
2022-10-29T04:51:04.568Z,91.50
2022-10-29T04:53:31.289Z,91.50
2022-10-29T04:56:01.770Z,91.50
2022-10-29T04:58:28.941Z,91.50
2022-10-29T05:01:01.669Z,91.50
2022-10-29T05:03:28.558Z,91.40
2022-10-29T05:05:55.302Z,91.40
2022-10-29T05:08:22.017Z,91.20
2022-10-29T05:10:48.893Z,91.20
2022-10-29T05:13:15.610Z,91.20
2022-10-29T05:15:42.419Z,91.10
2022-10-29T05:18:09.637Z,91.10
2022-10-29T05:20:36.376Z,91.10
2022-10-29T05:23:07.553Z,91.00
2022-10-29T05:25:35.499Z,90.80
2022-10-29T05:28:12.600Z,90.80
2022-10-29T05:30:40.146Z,90.80
2022-10-29T05:33:10.119Z,90.80
2022-10-29T05:35:37.023Z,91.00
2022-10-29T05:38:04.202Z,91.10
2022-10-29T05:40:31.172Z,91.20
2022-10-29T05:42:58.361Z,91.40
2022-10-29T05:45:25.455Z,91.40
2022-10-29T05:48:02.535Z,91.50
2022-10-29T05:50:30.018Z,91.20
2022-10-29T05:52:57.176Z,91.30
2022-10-29T05:55:24.539Z,91.30
2022-10-29T05:57:54.976Z,91.20
2022-10-29T06:00:21.770Z,90.80
2022-10-29T06:02:48.506Z,90.90
2022-10-29T06:05:15.411Z,91.20
2022-10-29T06:07:43.354Z,91.20
2022-10-29T06:10:10.328Z,91.40
2022-10-29T06:12:37.182Z,91.40
2022-10-29T06:15:04.197Z,91.30
2022-10-29T06:17:30.934Z,91.20
2022-10-29T06:19:57.750Z,91.00
2022-10-29T06:22:24.513Z,91.10
2022-10-29T06:24:51.274Z,91.20
2022-10-29T06:27:18.019Z,91.10
2022-10-29T06:29:44.777Z,91.30
2022-10-29T06:32:11.501Z,91.50
2022-10-29T06:34:38.235Z,91.40
2022-10-29T06:37:04.957Z,91.40
2022-10-29T06:39:31.733Z,91.40
2022-10-29T06:41:58.528Z,91.20
2022-10-29T06:44:29.839Z,91.00
2022-10-29T06:46:56.629Z,90.80
2022-10-29T06:49:23.525Z,90.80
2022-10-29T06:51:50.297Z,90.90
2022-10-29T06:54:17.090Z,91.00
2022-10-29T06:56:44.002Z,90.90
2022-10-29T06:59:10.870Z,91.10
2022-10-29T07:01:38.027Z,91.30
2022-10-29T07:04:05.030Z,91.30
2022-10-29T07:06:32.375Z,91.10
2022-10-29T07:08:59.190Z,91.20
2022-10-29T07:11:25.900Z,91.20
2022-10-29T07:13:52.690Z,91.30
2022-10-29T07:16:19.341Z,91.40
2022-10-29T07:18:46.251Z,91.40
2022-10-29T07:21:13.894Z,91.60
2022-10-29T07:23:40.723Z,91.80
2022-10-29T07:26:07.490Z,91.60
2022-10-29T07:28:34.213Z,91.60
2022-10-29T07:31:01.332Z,91.70
2022-10-29T07:33:29.189Z,91.60
2022-10-29T07:35:56.698Z,91.60
2022-10-29T07:38:23.713Z,91.60
2022-10-29T07:40:51.195Z,91.60
2022-10-29T07:43:18.591Z,91.70
2022-10-29T07:45:46.158Z,91.80
2022-10-29T07:48:12.995Z,91.90
2022-10-29T07:50:39.712Z,92.00
2022-10-29T07:53:07.293Z,91.90
2022-10-29T07:55:34.206Z,92.00
2022-10-29T07:58:02.482Z,91.70
2022-10-29T08:00:33.803Z,91.70
2022-10-29T08:03:00.641Z,91.40
2022-10-29T08:05:27.786Z,91.50
2022-10-29T08:07:55.623Z,91.70
2022-10-29T08:10:23.662Z,91.80
2022-10-29T08:12:54.946Z,91.90
2022-10-29T08:15:22.683Z,91.90
2022-10-29T08:17:50.034Z,91.90
2022-10-29T08:20:17.093Z,91.90
2022-10-29T08:22:44.095Z,91.90
2022-10-29T08:25:11.775Z,91.90
2022-10-29T08:27:38.489Z,91.80
2022-10-29T08:30:06.093Z,91.90
2022-10-29T08:32:32.816Z,92.00
2022-10-29T08:34:59.647Z,91.90
2022-10-29T08:37:26.640Z,91.90
2022-10-29T08:39:53.531Z,91.80
2022-10-29T08:42:39.090Z,91.80
2022-10-29T08:45:05.892Z,91.80
2022-10-29T08:47:38.461Z,91.80
2022-10-29T08:50:11.066Z,91.80
2022-10-29T08:52:48.196Z,91.90
2022-10-29T08:55:30.078Z,91.70
2022-10-29T08:57:58.406Z,91.60
2022-10-29T09:00:31.153Z,91.70
2022-10-29T09:02:59.165Z,91.80
2022-10-29T09:05:38.883Z,91.70
2022-10-29T09:08:28.569Z,91.90
2022-10-29T09:10:56.623Z,92.00
2022-10-29T09:13:38.794Z,91.90
2022-10-29T09:16:14.809Z,92.00
2022-10-29T09:19:11.124Z,92.00
2022-10-29T09:21:41.071Z,91.60
2022-10-29T09:24:35.252Z,91.70
2022-10-29T09:27:22.267Z,91.80
2022-10-29T09:29:48.982Z,92.00
2022-10-29T09:32:40.245Z,92.00
2022-10-29T09:35:27.355Z,92.00
2022-10-29T09:37:54.610Z,92.00
2022-10-29T09:40:29.668Z,91.80
2022-10-29T09:42:58.255Z,91.80
2022-10-29T09:45:30.243Z,91.70
2022-10-29T09:48:07.065Z,91.60
2022-10-29T09:50:52.743Z,91.60
2022-10-29T09:53:19.606Z,91.80
2022-10-29T09:55:53.594Z,91.80
2022-10-29T09:58:23.044Z,91.90
2022-10-29T10:00:50.736Z,91.90
2022-10-29T10:03:27.216Z,92.00
2022-10-29T10:06:00.244Z,92.00
2022-10-29T10:08:27.586Z,91.80
2022-10-29T10:10:54.419Z,92.00
2022-10-29T10:13:29.108Z,91.80
2022-10-29T10:15:59.888Z,91.80
2022-10-29T10:18:39.849Z,91.70
2022-10-29T10:21:11.070Z,92.00
2022-10-29T10:23:45.922Z,91.90
2022-10-29T10:26:28.027Z,91.90
2022-10-29T10:29:05.302Z,91.70
2022-10-29T10:31:32.044Z,91.50
2022-10-29T10:33:59.149Z,91.30
2022-10-29T10:36:29.103Z,91.00
2022-10-29T10:38:58.289Z,90.80
2022-10-29T10:41:29.192Z,90.70
2022-10-29T10:44:00.552Z,90.90
2022-10-29T10:46:54.474Z,90.90
2022-10-29T10:49:28.538Z,90.80
2022-10-29T10:51:56.513Z,90.60
2022-10-29T10:54:41.944Z,90.60
2022-10-29T10:57:12.000Z,90.60
2022-10-29T10:59:44.751Z,90.70
2022-10-29T11:02:37.907Z,90.50
2022-10-29T11:05:10.857Z,90.60
2022-10-29T11:07:39.208Z,90.60
2022-10-29T11:10:07.083Z,90.70
2022-10-29T11:12:40.266Z,90.70
2022-10-29T11:15:12.214Z,90.50
2022-10-29T11:17:47.768Z,90.40
2022-10-29T11:20:22.808Z,90.10
2022-10-29T11:22:56.036Z,90.10
2022-10-29T11:25:37.142Z,89.60
2022-10-29T11:28:11.953Z,89.50
2022-10-29T11:30:41.373Z,89.10
2022-10-29T11:35:49.447Z,89.20
2022-10-29T11:38:19.037Z,88.80
2022-10-29T11:41:05.176Z,88.60
2022-10-29T11:43:32.870Z,88.00
2022-10-29T11:46:06.600Z,86.20
2022-10-29T11:48:41.055Z,86.10
2022-10-29T11:51:17.190Z,85.70
2022-10-29T11:53:44.476Z,85.40
2022-10-29T11:56:11.460Z,85.20
2022-10-29T11:58:47.075Z,84.80
2022-10-29T12:01:29.050Z,84.70
2022-10-29T12:04:21.265Z,83.60
2022-10-29T12:07:10.056Z,82.60
2022-10-29T12:09:42.905Z,82.90
2022-10-29T12:12:20.842Z,82.20
2022-10-29T12:15:01.378Z,81.80
2022-10-29T12:17:43.775Z,81.60
2022-10-29T12:20:15.732Z,80.90
2022-10-29T12:22:58.988Z,79.90
2022-10-29T12:25:29.301Z,79.00
2022-10-29T12:28:05.563Z,78.40
2022-10-29T12:30:45.372Z,77.80
2022-10-29T12:33:21.335Z,77.70
2022-10-29T12:35:55.279Z,77.80
2022-10-29T12:38:32.973Z,78.00
2022-10-29T12:41:02.409Z,77.60
2022-10-29T12:43:30.440Z,77.10
2022-10-29T12:46:19.600Z,77.10
2022-10-29T12:48:50.281Z,77.30
2022-10-29T12:51:35.580Z,76.70
2022-10-29T12:54:41.173Z,76.40
2022-10-29T12:57:13.910Z,75.80
2022-10-29T12:59:41.554Z,75.00
2022-10-29T13:02:19.028Z,75.00
2022-10-29T13:05:04.772Z,74.60
2022-10-29T13:07:31.963Z,73.80
2022-10-29T13:10:17.716Z,73.40
2022-10-29T13:13:01.294Z,73.10
2022-10-29T13:15:30.512Z,72.20
2022-10-29T13:17:59.982Z,71.80
2022-10-29T13:20:33.154Z,71.50
2022-10-29T13:23:01.238Z,71.50
2022-10-29T13:25:42.350Z,70.90
2022-10-29T13:28:09.160Z,70.50
2022-10-29T13:30:37.428Z,69.60
2022-10-29T13:33:23.495Z,68.90
2022-10-29T13:35:54.179Z,68.70
2022-10-29T13:38:46.957Z,68.10
2022-10-29T13:41:28.022Z,67.70
2022-10-29T13:43:58.327Z,66.70
2022-10-29T13:46:46.166Z,66.40
2022-10-29T13:49:15.532Z,66.00
2022-10-29T13:51:50.034Z,65.30
2022-10-29T13:54:19.603Z,65.60
2022-10-29T13:56:53.014Z,65.40
2022-10-29T13:59:22.497Z,65.00
2022-10-29T14:01:55.990Z,64.90
2022-10-29T14:04:25.735Z,64.70
2022-10-29T14:06:54.637Z,64.70
2022-10-29T14:09:26.500Z,64.50
2022-10-29T14:11:57.883Z,64.60
2022-10-29T14:14:27.171Z,64.50
2022-10-29T14:17:08.915Z,64.30
2022-10-29T14:19:35.711Z,64.10
2022-10-29T14:22:02.564Z,63.80
2022-10-29T14:24:36.913Z,63.60
2022-10-29T14:27:07.854Z,63.80
2022-10-29T14:29:34.696Z,63.70
2022-10-29T14:32:05.629Z,63.80
2022-10-29T14:34:32.583Z,63.80
2022-10-29T14:37:03.492Z,63.70
2022-10-29T14:39:48.410Z,63.80
2022-10-29T14:42:37.113Z,63.70
2022-10-29T14:45:06.048Z,63.60
2022-10-29T14:47:36.615Z,63.30
2022-10-29T14:50:06.057Z,63.50
2022-10-29T14:52:35.151Z,63.40
2022-10-29T14:55:06.291Z,63.40
2022-10-29T14:57:34.650Z,63.40
2022-10-29T15:00:02.825Z,63.20
2022-10-29T15:02:39.022Z,63.20
2022-10-29T15:05:29.882Z,63.50
2022-10-29T15:08:12.935Z,63.80
2022-10-29T15:10:50.100Z,64.30
2022-10-29T15:13:24.747Z,65.00
2022-10-29T15:15:53.300Z,65.40
2022-10-29T15:18:21.555Z,65.60
2022-10-29T15:20:48.363Z,66.50
2022-10-29T15:23:18.203Z,66.80
2022-10-29T15:25:45.757Z,66.50
2022-10-29T15:28:19.455Z,66.70
2022-10-29T15:30:46.273Z,67.60
2022-10-29T15:33:17.994Z,68.80
2022-10-29T15:35:53.448Z,70.00
2022-10-29T15:38:46.951Z,70.90
2022-10-29T15:41:19.235Z,71.70
2022-10-29T15:43:50.299Z,72.40
2022-10-29T15:46:23.447Z,73.00
2022-10-29T15:48:50.234Z,73.70
2022-10-29T15:51:17.486Z,74.00
2022-10-29T15:53:44.436Z,74.40
2022-10-29T15:56:12.407Z,74.80
2022-10-29T15:58:39.570Z,75.20
2022-10-29T16:01:06.674Z,75.60
2022-10-29T16:03:38.381Z,75.90
2022-10-29T16:06:07.045Z,76.10
2022-10-29T16:08:36.475Z,76.30
2022-10-29T16:11:05.634Z,76.80
2022-10-29T16:13:32.672Z,76.80
2022-10-29T16:16:00.495Z,77.30
2022-10-29T16:18:27.401Z,77.60
2022-10-29T16:20:57.396Z,77.90
2022-10-29T16:23:24.183Z,77.90
2022-10-29T16:25:50.919Z,78.10
2022-10-29T16:28:17.697Z,78.10
2022-10-29T16:30:49.070Z,78.40
2022-10-29T16:33:16.480Z,78.60
2022-10-29T16:35:43.195Z,78.90
2022-10-29T16:38:11.121Z,79.20
2022-10-29T16:40:38.349Z,79.20
2022-10-29T16:43:05.424Z,79.30
2022-10-29T16:45:32.212Z,79.40
2022-10-29T16:47:59.600Z,79.60
2022-10-29T16:50:28.020Z,79.70
2022-10-29T16:52:58.527Z,79.90
2022-10-29T16:55:26.064Z,80.20
2022-10-29T16:57:53.026Z,80.30
2022-10-29T17:00:19.967Z,80.30
2022-10-29T17:02:46.961Z,80.10
2022-10-29T17:05:14.355Z,80.00
2022-10-29T17:07:41.325Z,79.90
2022-10-29T17:10:08.681Z,80.00
2022-10-29T17:12:36.080Z,80.40
2022-10-29T17:15:03.775Z,80.40
2022-10-29T17:17:30.884Z,80.30
2022-10-29T17:19:58.104Z,80.00
2022-10-29T17:22:24.898Z,80.30
2022-10-29T17:24:51.839Z,80.40
2022-10-29T17:27:18.721Z,80.40
2022-10-29T17:29:45.581Z,80.40
2022-10-29T17:32:12.687Z,80.60
2022-10-29T17:34:39.644Z,80.70
2022-10-29T17:37:06.674Z,81.00
2022-10-29T17:39:33.573Z,81.20
2022-10-29T17:42:02.806Z,81.10
2022-10-29T17:44:33.965Z,81.20
2022-10-29T17:47:00.815Z,81.10
2022-10-29T17:49:27.581Z,80.90
2022-10-29T17:51:54.335Z,81.20
2022-10-29T17:54:21.409Z,81.30
2022-10-29T17:56:49.065Z,81.40
2022-10-29T17:59:15.902Z,81.20
2022-10-29T18:01:43.697Z,81.00
2022-10-29T18:04:10.934Z,81.40
2022-10-29T18:06:38.295Z,81.60
2022-10-29T18:09:05.170Z,81.60
2022-10-29T18:11:32.410Z,81.80
2022-10-29T18:14:01.725Z,82.20
2022-10-29T18:16:29.456Z,82.80
2022-10-29T18:19:02.253Z,82.00
2022-10-29T18:21:30.281Z,82.00
2022-10-29T18:23:57.085Z,82.00
2022-10-29T18:26:24.040Z,81.90
2022-10-29T18:28:51.228Z,82.10
2022-10-29T18:31:18.434Z,82.20
2022-10-29T18:33:45.207Z,82.20
2022-10-29T18:36:12.282Z,82.10
2022-10-29T18:38:39.797Z,82.30
2022-10-29T18:41:06.733Z,82.20
2022-10-29T18:43:33.744Z,82.00
2022-10-29T18:46:04.721Z,81.80
2022-10-29T18:48:32.130Z,81.80
2022-10-29T18:51:03.956Z,81.90
2022-10-29T18:53:31.834Z,81.80
2022-10-29T18:55:58.731Z,81.90
2022-10-29T18:58:25.723Z,81.90
2022-10-29T19:00:52.803Z,82.00
2022-10-29T19:03:19.843Z,81.90
2022-10-29T19:05:46.737Z,81.80
2022-10-29T19:08:13.757Z,82.00
2022-10-29T19:10:41.354Z,82.10
2022-10-29T19:13:08.855Z,82.30
2022-10-29T19:15:36.902Z,82.40
2022-10-29T19:18:04.414Z,82.40
2022-10-29T19:20:33.353Z,82.40
2022-10-29T19:23:00.420Z,82.20
2022-10-29T19:25:28.197Z,82.10
2022-10-29T19:27:55.131Z,81.90
2022-10-29T19:30:22.010Z,81.90
2022-10-29T19:32:48.843Z,81.90
2022-10-29T19:35:15.843Z,82.20
2022-10-29T19:37:45.430Z,82.40
2022-10-29T19:40:12.567Z,82.50
2022-10-29T19:42:39.790Z,82.40
2022-10-29T19:45:09.226Z,82.40
2022-10-29T19:47:40.778Z,82.30
2022-10-29T19:50:08.760Z,81.90
2022-10-29T19:52:35.712Z,82.40
2022-10-29T19:55:25.830Z,82.50
2022-10-29T19:57:55.677Z,82.40
2022-10-29T20:00:26.175Z,82.10
2022-10-29T20:02:58.391Z,81.60
2022-10-29T20:05:25.769Z,82.00
2022-10-29T20:08:03.196Z,82.00
2022-10-29T20:10:36.398Z,82.10
2022-10-29T20:13:03.559Z,82.30
2022-10-29T20:16:05.830Z,82.10
2022-10-29T20:18:36.268Z,82.10
2022-10-29T20:21:03.231Z,82.10
2022-10-29T20:23:30.082Z,82.10
2022-10-29T20:25:56.904Z,82.30
2022-10-29T20:28:23.737Z,82.20
2022-10-29T20:30:50.580Z,82.10
2022-10-29T20:33:17.375Z,81.90
2022-10-29T20:35:44.100Z,82.10
2022-10-29T20:38:10.921Z,81.80
2022-10-29T20:40:37.653Z,82.00
2022-10-29T20:43:04.574Z,81.90
2022-10-29T20:45:31.326Z,82.00
2022-10-29T20:48:01.365Z,81.90
2022-10-29T20:50:28.282Z,82.20
2022-10-29T20:52:55.094Z,82.30
2022-10-29T20:55:21.927Z,82.40
2022-10-29T20:57:48.629Z,82.10
2022-10-29T21:00:15.461Z,82.10
2022-10-29T21:02:42.349Z,82.00
2022-10-29T21:05:09.215Z,81.90
2022-10-29T21:07:36.073Z,81.70
2022-10-29T21:10:02.960Z,81.50
2022-10-29T21:12:29.809Z,81.60
2022-10-29T21:14:56.544Z,81.70
2022-10-29T21:17:23.510Z,82.30
2022-10-29T21:19:50.266Z,81.40
2022-10-29T21:22:19.181Z,81.30
2022-10-29T21:24:46.294Z,81.30
2022-10-29T21:27:13.240Z,81.50
2022-10-29T21:29:41.327Z,81.60
2022-10-29T21:32:21.227Z,81.50
2022-10-29T21:34:48.005Z,81.50
2022-10-29T21:37:14.721Z,81.40
2022-10-29T21:39:44.977Z,81.50
2022-10-29T21:42:14.802Z,81.40
2022-10-29T21:44:41.582Z,81.30
2022-10-29T21:47:10.595Z,81.50
2022-10-29T21:49:37.426Z,81.70
2022-10-29T21:52:04.229Z,81.80
2022-10-29T21:54:30.957Z,81.80
2022-10-29T21:56:57.781Z,82.00
2022-10-29T21:59:24.534Z,81.90
2022-10-29T22:01:51.435Z,81.80
2022-10-29T22:04:19.158Z,82.00
2022-10-29T22:06:45.996Z,82.10
2022-10-29T22:09:12.848Z,81.80
2022-10-29T22:11:39.582Z,81.40
2022-10-29T22:14:07.034Z,81.50
2022-10-29T22:16:33.948Z,81.40
2022-10-29T22:19:01.979Z,80.90
2022-10-29T22:21:28.944Z,81.10
2022-10-29T22:23:56.838Z,81.30
2022-10-29T22:26:27.954Z,81.20
2022-10-29T22:28:55.079Z,81.30
2022-10-29T22:31:22.608Z,81.90
2022-10-29T22:33:49.701Z,81.70
2022-10-29T22:36:21.775Z,81.30
2022-10-29T22:38:55.620Z,81.30
2022-10-29T22:41:26.434Z,81.40
2022-10-29T22:43:53.489Z,81.50
2022-10-29T22:46:20.808Z,81.60
2022-10-29T22:48:47.864Z,81.70
2022-10-29T22:51:14.749Z,81.50
2022-10-29T22:53:41.564Z,81.40
2022-10-29T22:56:10.691Z,81.30
2022-10-29T22:58:38.102Z,81.50
2022-10-29T23:01:06.662Z,81.50
2022-10-29T23:03:40.226Z,81.70
2022-10-29T23:06:08.604Z,81.50
2022-10-29T23:08:38.095Z,81.10
2022-10-29T23:11:21.130Z,81.40
2022-10-29T23:13:55.088Z,81.50
2022-10-29T23:16:25.166Z,81.10
2022-10-29T23:18:53.967Z,81.60
2022-10-29T23:21:26.845Z,81.30
2022-10-29T23:23:54.047Z,81.00
2022-10-29T23:26:32.243Z,81.20
2022-10-29T23:29:15.991Z,81.50
2022-10-29T23:31:42.773Z,81.50
2022-10-29T23:34:17.153Z,81.20
2022-10-29T23:36:44.012Z,81.30
2022-10-29T23:39:11.223Z,81.10
2022-10-29T23:41:37.979Z,81.00
2022-10-29T23:44:07.085Z,81.10
2022-10-29T23:46:33.895Z,81.10
2022-10-29T23:49:00.643Z,81.10
2022-10-29T23:51:31.053Z,81.40
2022-10-29T23:53:57.958Z,81.60
2022-10-29T23:56:25.100Z,81.30
2022-10-29T23:58:51.926Z,81.40
